Time;durP1;ratioP1;P1;durP2;ratioP2;P2;SDS_P1;SDS_P2;PMS_P1;PMS_P2;Temp;Humidity;BMP_temperature;BMP_pressure;BME280_temperature;BME280_humidity;BME280_pressure;Samples;Min_cycle;Max_cycle;Signal;HPM_P1;HPM_P2
2021/12/19 00:02:45;;;;;;;23.92;8.98;;;;;;;;;;4858575;29;20045;-96
2021/12/19 00:10:14;;;;;;;14.77;6.90;;;;;;;;;;4863109;29;20044;-94
2021/12/19 00:12:42;;;;;;;20.27;8.93;;;;;;;;;;4848163;29;20182;-96
2021/12/19 00:15:20;;;;;;;24.55;9.65;;;;;;;;;;4851073;29;20034;-94
2021/12/19 00:17:46;;;;;;;35.13;9.27;;;;;;;;;;4842727;29;20034;-94
2021/12/19 00:20:21;;;;;;;29.38;8.63;;;;;;;;;;4841091;29;20029;-95
2021/12/19 00:22:50;;;;;;;28.88;7.68;;;;;;;;;;4859087;29;20029;-95
2021/12/19 00:25:16;;;;;;;29.65;10.27;;;;;;;;;;4843539;29;20049;-94
2021/12/19 00:27:42;;;;;;;28.88;8.85;;;;;;;;;;4841813;29;20034;-94
2021/12/19 00:30:11;;;;;;;26.00;10.32;;;;;;;;;;4848036;29;20030;-95
2021/12/19 00:32:43;;;;;;;19.63;6.93;;;;;;;;;;4917027;29;20047;-94
2021/12/19 00:35:12;;;;;;;21.90;7.43;;;;;;;;;;4917036;29;20040;-95
2021/12/19 00:37:38;;;;;;;26.17;9.70;;;;;;;;;;4909820;29;20043;-95
2021/12/19 00:40:07;;;;;;;21.38;9.50;;;;;;;;;;4916944;29;20059;-93
2021/12/19 00:42:37;;;;;;;36.35;10.07;;;;;;;;;;4916662;29;20040;-96
2021/12/19 00:45:34;;;;;;;32.83;10.93;;;;;;;;;;4916641;29;20034;-95
2021/12/19 00:48:10;;;;;;;33.95;11.80;;;;;;;;;;4915932;29;20120;-94
2021/12/19 00:50:39;;;;;;;25.98;10.60;;;;;;;;;;4917062;29;20043;-95
2021/12/19 00:53:08;;;;;;;31.50;9.70;;;;;;;;;;4900195;29;20104;-94
2021/12/19 00:55:37;;;;;;;29.17;11.63;;;;;;;;;;4897756;29;20439;-95
2021/12/19 00:58:10;;;;;;;24.17;8.68;;;;;;;;;;4911898;29;20115;-96
2021/12/19 01:00:39;;;;;;;28.13;7.88;;;;;;;;;;4916754;29;20044;-94
2021/12/19 01:03:05;;;;;;;31.25;9.77;;;;;;;;;;4918031;29;20042;-95
2021/12/19 01:08:37;;;;;;;31.42;12.23;;;;;;;;;;4939641;29;20055;-96
2021/12/19 01:11:06;;;;;;;22.05;9.50;;;;;;;;;;4940372;29;20039;-94
2021/12/19 01:13:43;;;;;;;25.38;8.98;;;;;;;;;;4938332;29;20794;-95
2021/12/19 01:16:16;;;;;;;34.58;8.40;;;;;;;;;;4928733;29;20036;-95
2021/12/19 01:18:51;;;;;;;29.63;10.38;;;;;;;;;;4932445;29;20042;-95
2021/12/19 01:21:20;;;;;;;27.80;12.07;;;;;;;;;;4922577;29;20075;-95
2021/12/19 01:23:54;;;;;;;31.40;11.80;;;;;;;;;;4939461;29;20159;-95
2021/12/19 01:26:20;;;;;;;30.77;8.52;;;;;;;;;;4939634;29;20051;-95
2021/12/19 01:28:46;;;;;;;22.20;7.53;;;;;;;;;;4922529;29;20024;-94
2021/12/19 01:31:15;;;;;;;25.45;11.80;;;;;;;;;;4922270;29;20059;-95
2021/12/19 01:33:47;;;;;;;35.95;10.15;;;;;;;;;;4939533;29;20027;-94
2021/12/19 01:36:18;;;;;;;28.08;9.40;;;;;;;;;;4937944;29;20099;-95
2021/12/19 01:38:47;;;;;;;24.02;9.65;;;;;;;;;;4943532;29;20032;-95
2021/12/19 01:41:13;;;;;;;25.00;10.20;;;;;;;;;;4928798;29;20046;-95
2021/12/19 01:43:39;;;;;;;25.17;9.60;;;;;;;;;;4922149;29;20028;-95
2021/12/19 01:46:08;;;;;;;27.33;11.25;;;;;;;;;;4938854;29;20031;-94
2021/12/19 01:48:40;;;;;;;25.92;9.82;;;;;;;;;;4938972;29;20027;-95
2021/12/19 01:51:06;;;;;;;31.25;10.55;;;;;;;;;;4930555;29;20047;-95
2021/12/19 01:56:25;;;;;;;30.45;11.05;;;;;;;;;;4899397;29;20032;-95
2021/12/19 01:58:54;;;;;;;28.45;10.63;;;;;;;;;;4883626;29;20455;-95
2021/12/19 02:01:28;;;;;;;37.50;10.77;;;;;;;;;;4876363;29;20080;-93
2021/12/19 02:03:57;;;;;;;34.10;10.35;;;;;;;;;;4883044;29;20176;-94
2021/12/19 02:06:24;;;;;;;23.10;8.68;;;;;;;;;;4902009;29;20056;-94
2021/12/19 02:08:59;;;;;;;23.65;10.88;;;;;;;;;;4898127;29;20036;-94
2021/12/19 02:11:37;;;;;;;25.85;10.60;;;;;;;;;;4896462;29;20021;-94
2021/12/19 02:14:07;;;;;;;30.90;10.63;;;;;;;;;;4898405;29;20127;-94
2021/12/19 02:16:54;;;;;;;22.52;8.70;;;;;;;;;;4896249;29;20128;-95
2021/12/19 02:19:29;;;;;;;16.63;9.52;;;;;;;;;;4898856;29;20036;-95
2021/12/19 02:21:55;;;;;;;25.52;9.18;;;;;;;;;;4883073;29;20037;-93
2021/12/19 02:24:21;;;;;;;22.90;9.32;;;;;;;;;;4898141;29;20036;-93
2021/12/19 02:26:55;;;;;;;24.23;8.23;;;;;;;;;;4898365;29;20127;-95
2021/12/19 02:29:27;;;;;;;26.52;9.80;;;;;;;;;;4897406;29;20490;-95
2021/12/19 02:32:04;;;;;;;23.70;11.02;;;;;;;;;;4879883;29;20108;-95
2021/12/19 02:34:42;;;;;;;43.83;11.43;;;;;;;;;;4917518;29;20062;-95
2021/12/19 02:37:23;;;;;;;;;;;5.30;86.10;;;;;;4882998;29;20032;-96
2021/12/19 02:40:30;;;;;;;29.30;8.95;;;;;;;;;;4911980;29;19942;-96
2021/12/19 02:48:45;;;;;;;28.40;9.60;;;;;;;;;;4919180;29;20198;-95
2021/12/19 02:51:14;;;;;;;32.83;10.15;;;;;;;;;;4933324;29;20182;-94
2021/12/19 02:53:47;;;;;;;30.48;10.57;;;;;;;;;;4918144;29;20525;-95
2021/12/19 02:56:20;;;;;;;23.95;9.98;;;;;;;;;;4919238;29;20028;-95
2021/12/19 02:58:58;;;;;;;36.13;11.23;;;;;;;;;;4918723;29;20028;-94
2021/12/19 03:01:24;;;;;;;18.05;7.78;;;;;;;;;;4918545;29;20040;-94
2021/12/19 03:04:02;;;;;;;31.92;10.15;;;;;;;;;;4910659;29;20031;-94
2021/12/19 03:06:31;;;;;;;27.95;9.95;;;;;;;;;;4908429;29;20060;-96
2021/12/19 03:09:06;;;;;;;34.45;12.30;;;;;;;;;;4905721;29;20028;-94
2021/12/19 03:19:45;;;;;;;20.65;8.45;;;;;;;;;;4918809;29;20754;-94
2021/12/19 03:22:21;;;;;;;24.58;10.07;;;;;;;;;;4889132;29;20040;-95
2021/12/19 03:27:45;;;;;;;18.55;8.20;;;;;;;;;;4859029;29;20034;-96
2021/12/19 03:30:14;;;;;;;30.88;10.63;;;;;;;;;;4852821;29;20149;-95
2021/12/19 03:32:40;;;;;;;24.58;8.40;;;;;;;;;;4830389;29;20067;-95
2021/12/19 03:35:09;;;;;;;25.50;11.63;;;;;;;;;;4860292;29;20037;-94
2021/12/19 03:37:35;;;;;;;32.00;10.70;;;;;;;;;;4851927;29;20038;-95
2021/12/19 03:40:22;;;;;;;26.45;9.48;;;;;;;;;;4858879;29;20038;-95
2021/12/19 03:42:55;;;;;;;20.83;10.18;;;;;;;;;;4820527;29;20046;-94
2021/12/19 03:45:25;;;;;;;29.92;9.70;;;;;;;;;;4833072;29;20132;-96
2021/12/19 03:47:54;;;;;;;20.65;8.27;;;;;;;;;;4841535;29;20030;-95
2021/12/19 03:50:33;;;;;;;26.88;9.85;;;;;;;;;;4840485;29;20121;-94
2021/12/19 03:53:02;;;;;;;22.15;11.68;;;;;;;;;;4823299;29;20038;-96
2021/12/19 03:55:28;;;;;;;35.05;10.38;;;;;;;;;;4837668;29;20405;-94
2021/12/19 03:57:58;;;;;;;19.83;9.68;;;;;;;;;;4836426;29;20496;-95
2021/12/19 04:03:21;;;;;;;22.00;8.05;;;;;;;;;;4832220;29;20030;-95
2021/12/19 04:05:53;;;;;;;24.58;9.05;;;;;;;;;;4908014;29;20051;-94
2021/12/19 04:08:48;;;;;;;21.80;9.15;;;;;;;;;;4935031;29;20031;-95
2021/12/19 04:11:18;;;;;;;32.28;10.10;;;;;;;;;;4918597;29;20115;-95
2021/12/19 04:13:47;;;;;;;20.35;9.05;;;;;;;;;;4937102;29;20027;-94
2021/12/19 04:16:16;;;;;;;22.70;9.23;;;;;;;;;;4936484;29;20083;-96
2021/12/19 04:18:45;;;;;;;28.90;11.60;;;;;;;;;;4936411;29;20059;-95
2021/12/19 04:21:13;;;;;;;31.38;9.88;;;;;;;;;;4936112;29;20127;-95
2021/12/19 04:23:51;;;;;;;24.60;7.63;;;;;;;;;;4920897;29;20020;-95
2021/12/19 04:26:23;;;;;;;18.27;8.77;;;;;;;;;;4936050;29;20110;-95
2021/12/19 04:31:40;;;;;;;28.10;11.23;;;;;;;;;;4896984;29;20588;-96
2021/12/19 04:37:03;;;;;;;38.42;12.13;;;;;;;;;;4897301;29;20032;-96
2021/12/19 04:56:48;;;;;;;24.23;10.15;;;;;;;;;;4897424;29;20048;-95
2021/12/19 05:15:29;;;;;;;23.08;6.95;;;;;;;;;;4917525;29;20050;-95
2021/12/19 05:18:03;;;;;;;28.30;8.98;;;;;;;;;;4916781;29;20096;-96
2021/12/19 05:20:33;;;;;;;18.30;7.65;;;;;;;;;;4918035;29;20636;-95
2021/12/19 05:23:19;;;;;;;33.42;8.45;;;;;;;;;;4916769;29;20044;-94
2021/12/19 05:25:51;;;;;;;20.70;9.05;;;;;;;;;;4916991;29;20036;-95
2021/12/19 05:28:23;;;;;;;16.00;7.75;;;;;;;;;;4917152;29;20028;-94
2021/12/19 05:30:49;;;;;;;30.13;9.88;;;;;;;;;;4916904;29;20039;-93
2021/12/19 05:33:25;;;;;;;16.35;6.93;;;;;;;;;;4916541;29;20498;-94
2021/12/19 05:36:05;;;;;;;30.92;10.40;;;;;;;;;;4912416;29;20494;-94
2021/12/19 05:47:00;;;;;;;27.05;8.13;;;;;;;;;;4917246;29;20500;-94
2021/12/19 05:49:29;;;;;;;22.27;7.27;;;;;;;;;;4919280;29;20017;-94
2021/12/19 05:51:57;;;;;;;33.13;9.68;;;;;;;;;;4917497;29;20296;-95
2021/12/19 05:54:23;;;;;;;25.20;9.15;;;;;;;;;;4911114;29;20622;-94
2021/12/19 05:56:55;;;;;;;25.38;8.13;;;;;;;;;;4919271;29;20068;-95
2021/12/19 05:59:27;;;;;;;24.58;8.05;;;;;;;;;;4920515;29;20055;-92
2021/12/19 06:01:59;;;;;;;23.92;7.07;;;;;;;;;;4920734;29;20044;-95
2021/12/19 06:04:31;;;;;;;26.73;8.95;;;;;;;;;;4920532;29;20072;-94
2021/12/19 06:06:57;;;;;;;16.25;7.20;;;;;;;;;;4909811;29;20593;-94
2021/12/19 06:09:26;;;;;;;25.73;10.82;;;;;;;;;;4911615;29;20040;-95
2021/12/19 06:11:52;;;;;;;26.40;8.05;;;;;;;;;;4904452;29;20034;-94
2021/12/19 06:14:22;;;;;;;28.80;8.63;;;;;;;;;;4919556;29;20044;-95
2021/12/19 06:16:54;;;;;;;32.75;9.60;;;;;;;;;;4913727;29;20024;-94
2021/12/19 06:19:20;;;;;;;29.10;8.18;;;;;;;;;;4917996;29;20063;-94
2021/12/19 06:21:49;;;;;;;25.25;8.90;;;;;;;;;;4899324;29;20035;-94
2021/12/19 06:24:19;;;;;;;28.88;8.15;;;;;;;;;;4912802;29;20125;-95
2021/12/19 06:26:45;;;;;;;27.98;9.88;;;;;;;;;;4905462;29;20024;-95
2021/12/19 06:29:14;;;;;;;38.97;10.77;;;;;;;;;;4918867;29;20035;-95
2021/12/19 06:31:40;;;;;;;27.27;8.10;;;;;;;;;;4918311;29;20032;-96
2021/12/19 06:34:12;;;;;;;24.08;7.90;;;;;;;;;;4918319;29;20116;-93
2021/12/19 06:36:40;;;;;;;21.65;9.43;;;;;;;;;;4909041;29;20048;-93
2021/12/19 06:39:09;;;;;;;28.38;8.50;;;;;;;;;;4901704;29;20569;-96
2021/12/19 06:41:36;;;;;;;32.53;10.05;;;;;;;;;;4915279;29;20044;-94
2021/12/19 06:44:02;;;;;;;23.27;8.00;;;;;;;;;;4918618;29;20115;-94
2021/12/19 06:46:28;;;;;;;27.20;8.80;;;;;;;;;;4910212;29;20096;-94
2021/12/19 06:49:01;;;;;;;33.00;10.00;;;;;;;;;;4919055;29;20064;-95
2021/12/19 06:51:27;;;;;;;21.67;7.90;;;;;;;;;;4902267;29;20115;-93
2021/12/19 06:53:56;;;;;;;17.70;7.57;;;;;;;;;;4924998;29;20055;-95
2021/12/19 06:56:28;;;;;;;26.35;7.97;;;;;;;;;;4936765;29;20168;-94
2021/12/19 06:58:57;;;;;;;24.48;7.68;;;;;;;;;;4917722;29;20044;-96
2021/12/19 07:01:23;;;;;;;26.30;7.75;;;;;;;;;;4901991;29;20043;-96
2021/12/19 07:03:55;;;;;;;27.92;7.05;;;;;;;;;;4899343;29;20033;-95
2021/12/19 07:09:18;;;;;;;29.05;10.55;;;;;;;;;;4938587;29;20043;-95
2021/12/19 07:12:10;;;;;;;22.55;7.60;;;;;;;;;;4937904;29;20676;-96
2021/12/19 07:14:43;;;;;;;35.80;9.52;;;;;;;;;;4878957;29;20048;-94
2021/12/19 07:17:15;;;;;;;31.38;8.85;;;;;;;;;;4879237;29;20523;-95
2021/12/19 07:19:41;;;;;;;23.45;8.68;;;;;;;;;;4863739;29;20037;-94
2021/12/19 07:22:07;;;;;;;29.05;7.93;;;;;;;;;;4878984;29;20213;-94
2021/12/19 07:24:39;;;;;;;31.20;9.20;;;;;;;;;;4879337;29;20037;-94
2021/12/19 07:30:12;;;;;;;19.60;7.95;;;;;;;;;;4878613;29;20029;-94
2021/12/19 07:32:44;;;;;;;25.60;8.85;;;;;;;;;;4863455;29;20033;-94
2021/12/19 07:35:15;;;;;;;19.27;7.50;;;;;;;;;;4878998;29;20029;-95
2021/12/19 07:37:41;;;;;;;23.33;6.80;;;;;;;;;;4863830;29;20123;-95
2021/12/19 07:40:19;;;;;;;25.40;9.00;;;;;;;;;;4878698;29;20113;-95
2021/12/19 07:42:52;;;;;;;;;;;4.60;87.00;;;;;;4876985;29;20040;-95
2021/12/19 07:45:21;;;;;;;29.17;7.30;;;;;;;;;;4878096;29;19935;-95
2021/12/19 07:47:47;;;;;;;24.70;8.15;;;;;;;;;;4879200;29;20039;-95
2021/12/19 07:50:22;;;;;;;23.88;8.05;;;;;;;;;;4879282;29;20522;-94
2021/12/19 07:52:48;;;;;;;22.27;7.45;;;;;;;;;;4918752;29;20032;-95
2021/12/19 07:55:26;;;;;;;25.38;7.65;;;;;;;;;;4935677;29;20118;-95
2021/12/19 07:57:58;;;;;;;23.15;8.40;;;;;;;;;;4936738;29;20190;-95
2021/12/19 08:00:24;;;;;;;35.00;7.72;;;;;;;;;;4937662;29;20036;-94
2021/12/19 08:03:54;;;;;;;24.55;8.23;;;;;;;;;;4941681;29;20058;-95
2021/12/19 08:05:58;;;;;;;23.63;7.70;;;;;;;;;;4930914;29;20024;-96
2021/12/19 08:08:33;;;;;;;24.60;6.72;;;;;;;;;;4937283;29;20063;-94
2021/12/19 08:13:51;;;;;;;23.92;7.07;;;;;;;;;;4937209;29;20037;-96
2021/12/19 08:16:18;;;;;;;25.70;7.65;;;;;;;;;;4931740;29;20040;-96
2021/12/19 08:18:51;;;;;;;32.33;7.72;;;;;;;;;;4919240;29;20024;-93
2021/12/19 08:21:55;;;;;;;26.55;10.70;;;;;;;;;;4923962;29;20031;-94
2021/12/19 08:26:57;;;;;;;28.63;7.97;;;;;;;;;;5350260;23;20118;-94
2021/12/19 08:29:23;;;;;;;33.70;9.13;;;;;;;;;;4903244;29;20043;-96
2021/12/19 08:34:28;;;;;;;24.80;8.50;;;;;;;;;;5506904;23;20075;-93
2021/12/19 08:36:57;;;;;;;25.88;9.15;;;;;;;;;;4933936;29;20027;-93
2021/12/19 08:39:34;;;;;;;22.90;6.35;;;;;;;;;;4934861;29;20043;-95
2021/12/19 08:47:11;;;;;;;18.33;7.22;;;;;;;;;;4930195;23;20059;-93
2021/12/19 08:55:51;;;;;;;19.00;6.25;;;;;;;;;;4911853;29;20078;-94
2021/12/19 08:58:31;;;;;;;21.17;6.22;;;;;;;;;;4891590;29;20040;-94
2021/12/19 09:01:01;;;;;;;24.33;9.50;;;;;;;;;;4912801;29;20036;-94
2021/12/19 09:06:43;;;;;;;28.17;8.07;;;;;;;;;;4872145;29;20041;-92
2021/12/19 09:09:29;;;;;;;;;;;;;;;;;;;;;
2021/12/19 09:11:55;;;;;;;26.30;8.13;;;;;;;;;;4871441;29;20037;-95
2021/12/19 09:14:41;;;;;;;21.85;8.57;;;;;;;;;;4885945;29;20048;-93
2021/12/19 09:17:25;;;;;;;20.67;6.78;;;;;;;;;;4871167;29;20036;-94
2021/12/19 09:19:53;;;;;;;24.88;8.13;;;;;;;;;;4855266;29;20021;-93
2021/12/19 09:22:25;;;;;;;21.13;6.85;;;;;;;;;;4879383;29;20155;-93
2021/12/19 09:30:36;;;;;;;16.73;8.00;;;;;;;;;;4886855;29;20037;-93
2021/12/19 10:02:55;;;;;;;23.15;6.93;;;;;;;;;;5573106;23;20059;-96
2021/12/19 10:05:38;;;;;;;;;;;;;;;;;;;;;
2021/12/19 10:14:41;;;;;;;40.30;10.93;;;5.10;86.30;;;;;;4924888;29;20043;-96
2021/12/19 10:17:30;;;;;;;43.33;8.80;;;;;;;;;;5034520;23;20084;-94
2021/12/19 10:19:57;;;;;;;29.70;7.20;;;;;;;;;;4918577;29;20059;-94
2021/12/19 10:22:29;;;;;;;23.98;7.93;;;;;;;;;;4923141;29;20864;-94
2021/12/19 10:38:00;;;;;;;23.42;8.98;;;;;;;;;;4916535;29;20071;-96
2021/12/19 10:47:32;;;;;;;20.85;7.53;;;;;;;;;;4846916;29;20072;-91
2021/12/19 10:53:32;;;;;;;;;;;;;;;;;;;;;
2021/12/19 11:05:52;;;;;;;;;;;;;;;;;;;;;
2021/12/19 11:08:51;;;;;;;;;;;;;;;;;;;;;
2021/12/19 11:11:48;;;;;;;23.73;7.35;;;;;;;;;;4628615;31;20150;-96
2021/12/19 11:14:43;;;;;;;;;;;;;;;;;;;;;
2021/12/19 11:27:21;;;;;;;19.88;6.82;;;;;;;;;;4670373;30;20054;-96
2021/12/19 11:36:19;;;;;;;;;;;;;;;;;;;;;
2021/12/19 11:48:45;;;;;;;;;;;;;;;;;;;;;
2021/12/19 11:51:49;;;;;;;26.27;8.73;;;;;;;;;;4731770;30;20104;-95
2021/12/19 12:17:29;;;;;;;27.58;9.38;;;;;;;;;;5504214;23;20127;-95
2021/12/19 12:20:02;;;;;;;31.50;9.82;;;;;;;;;;4884023;29;20055;-93
2021/12/19 12:25:52;;;;;;;24.17;7.07;;;;;;;;;;4835556;29;20488;-94
2021/12/19 12:28:32;;;;;;;31.63;7.80;;;;;;;;;;4839910;29;20038;-96
2021/12/19 12:31:01;;;;;;;27.70;7.30;;;;;;;;;;4839213;29;20098;-94
2021/12/19 12:50:26;;;;;;;;;;;;;;;;;;;;;
2021/12/19 13:47:55;;;;;;;27.10;7.93;;;;;;;;;;4922335;29;20060;-94
2021/12/19 13:50:40;;;;;;;29.55;9.05;;;;;;;;;;4890207;29;20060;-95
2021/12/19 13:53:17;;;;;;;24.95;8.00;;;;;;;;;;4901936;29;20413;-94
2021/12/19 13:56:02;;;;;;;;;;;5.70;85.50;;;;;;4916633;29;20040;-95
2021/12/19 14:04:09;;;;;;;22.70;7.15;;;;;;;;;;5254203;23;20064;-94
2021/12/19 14:13:37;;;;;;;23.88;8.13;;;;;;;;;;5061911;23;20098;-96
2021/12/19 14:16:21;;;;;;;25.35;8.25;;;;;;;;;;5221700;23;20108;-96
2021/12/19 14:18:52;;;;;;;24.92;8.05;;;;;;;;;;5017960;23;20060;-95
2021/12/19 14:29:27;;;;;;;17.60;7.15;;;;;;;;;;4723369;30;20041;-95
2021/12/19 14:39:28;;;;;;;18.50;6.57;;;5.40;85.40;;;;;;4656876;30;20042;-95
2021/12/19 14:43:09;;;;;;;;;;;;;;;;;;;;;
2021/12/19 14:45:56;;;;;;;27.35;6.57;;;;;;;;;;4625178;31;20103;-94
2021/12/19 15:43:19;;;;;;;13.95;5.70;;;;;;;;;;6119081;22;3379886;-91
2021/12/19 15:46:12;;;;;;;23.65;7.10;;;;;;;;;;6232885;23;20008;-93
2021/12/19 15:49:23;;;;;;;;;;;;;;;;;;;;;
2021/12/19 15:52:14;;;;;;;20.60;5.90;;;;;;;;;;6108159;23;20056;-94
2021/12/19 15:54:41;;;;;;;48.70;12.32;;;;;;;;;;6082579;23;20006;-93
2021/12/19 15:57:07;;;;;;;13.45;6.55;;;;;;;;;;6107069;23;20057;-94
2021/12/19 15:59:43;;;;;;;30.33;8.70;;;;;;;;;;6107462;23;20018;-94
2021/12/19 16:02:14;;;;;;;23.83;6.60;;;;;;;;;;6080111;23;20044;-89
2021/12/19 16:04:40;;;;;;;28.38;7.45;;;;;;;;;;6102189;23;20081;-90
2021/12/19 16:07:06;;;;;;;22.92;5.07;;;;;;;;;;6101455;23;20033;-90
2021/12/19 16:09:33;;;;;;;21.20;8.48;;;;;;;;;;6096963;23;20007;-90
2021/12/19 16:11:59;;;;;;;27.98;9.05;;;;;;;;;;6095655;23;20014;-91
2021/12/19 16:14:25;;;;;;;19.25;7.22;;;;;;;;;;6095608;23;20023;-89
2021/12/19 16:16:51;;;;;;;27.52;7.72;;;;;;;;;;6072623;23;20355;-88
2021/12/19 16:19:17;;;;;;;27.17;7.75;;;;;;;;;;6096973;23;20011;-90
2021/12/19 16:21:43;;;;;;;27.95;7.50;;;;;;;;;;6071447;23;20014;-90
2021/12/19 16:24:09;;;;;;;18.80;6.93;;;;;;;;;;6069425;23;20010;-90
2021/12/19 16:26:35;;;;;;;17.83;6.90;;;;;;;;;;6094388;23;20002;-89
2021/12/19 16:29:01;;;;;;;16.67;7.25;;;;;;;;;;6239511;23;20011;-89
2021/12/19 16:31:32;;;;;;;13.18;6.43;;;;;;;;;;6220791;23;20036;-89
2021/12/19 16:34:02;;;;;;;45.95;8.57;;;;;;;;;;6246471;23;20019;-91
2021/12/19 16:36:28;;;;;;;35.78;9.52;;;;;;;;;;6219777;23;20107;-91
2021/12/19 16:38:54;;;;;;;31.50;8.13;;;;;;;;;;6247734;23;20023;-89
2021/12/19 16:41:26;;;;;;;23.15;7.40;;;;;;;;;;6220478;22;20008;-91
2021/12/19 16:43:52;;;;;;;23.35;7.75;;;;;;;;;;6247543;23;20454;-90
2021/12/19 16:46:18;;;;;;;36.13;8.80;;;;;;;;;;6219925;23;20008;-90
2021/12/19 16:48:44;;;;;;;28.55;7.35;;;;;;;;;;6219528;23;20007;-89
2021/12/19 16:51:10;;;;;;;30.37;7.63;;;;;;;;;;6247430;23;20008;-90
2021/12/19 16:53:37;;;;;;;28.38;8.68;;;;;;;;;;6221665;23;20023;-89
2021/12/19 16:56:04;;;;;;;32.85;10.02;;;;;;;;;;6220945;23;20004;-91
2021/12/19 16:58:30;;;;;;;27.05;6.60;;;;;;;;;;6221691;23;20012;-91
2021/12/19 17:00:57;;;;;;;18.25;5.72;;;;;;;;;;6220754;23;20421;-91
2021/12/19 17:03:23;;;;;;;25.48;8.13;;;;;;;;;;6247119;23;20004;-91
2021/12/19 17:05:49;;;;;;;29.17;8.18;;;;;;;;;;6249965;23;20004;-91
2021/12/19 17:08:15;;;;;;;34.80;11.85;;;;;;;;;;6248651;23;20003;-90
2021/12/19 17:10:42;;;;;;;41.70;13.02;;;;;;;;;;6246513;23;20079;-91
2021/12/19 17:13:15;;;;;;;36.08;11.32;;;;;;;;;;6247022;23;20094;-90
2021/12/19 17:15:42;;;;;;;33.92;10.75;;;;;;;;;;6219847;23;20001;-90
2021/12/19 17:18:09;;;;;;;29.92;7.32;;;;;;;;;;6246411;23;20095;-90
2021/12/19 17:20:40;;;;;;;35.25;12.20;;;;;;;;;;6246740;23;19997;-91
2021/12/19 17:23:07;;;;;;;30.17;9.30;;;;;;;;;;6245999;23;20462;-90
2021/12/19 17:25:33;;;;;;;27.85;8.40;;;;;;;;;;6221108;23;20035;-91
2021/12/19 17:27:59;;;;;;;30.95;8.73;;;;;;;;;;6247917;23;20454;-92
2021/12/19 17:30:25;;;;;;;42.65;12.32;;;;;;;;;;6245030;23;19996;-90
2021/12/19 17:32:51;;;;;;;24.08;9.07;;;;;;;;;;6247435;23;20004;-90
2021/12/19 17:35:17;;;;;;;35.50;9.80;;;;;;;;;;6220708;23;20083;-90
2021/12/19 17:37:43;;;;;;;38.85;11.80;;;;;;;;;;6219754;23;20276;-91
2021/12/19 17:40:26;;;;;;;31.88;10.80;;;;;;;;;;6247701;23;20001;-89
2021/12/19 17:42:53;;;;;;;34.72;8.82;;;;;;;;;;6247336;22;20482;-90
2021/12/19 17:45:21;;;;;;;31.05;9.77;;;;;;;;;;6220129;23;20287;-89
2021/12/19 17:47:47;;;;;;;20.75;6.70;;;;;;;;;;6247485;23;20087;-91
2021/12/19 17:50:13;;;;;;;18.90;6.72;;;;;;;;;;6221389;23;19996;-91
2021/12/19 17:52:39;;;;;;;18.00;7.07;;;;;;;;;;6246346;23;20080;-90
2021/12/19 17:55:05;;;;;;;28.90;9.05;;;;;;;;;;6220259;23;20027;-89
2021/12/19 17:57:31;;;;;;;37.08;9.48;;;;;;;;;;6246401;23;20012;-90
2021/12/19 17:59:57;;;;;;;21.10;7.53;;;;;;;;;;6220717;23;20781;-91
2021/12/19 18:02:24;;;;;;;54.50;15.70;;;;;;;;;;6247069;23;20000;-91
2021/12/19 18:04:50;;;;;;;14.35;7.75;;;;;;;;;;6246612;23;20083;-89
2021/12/19 18:07:16;;;;;;;15.88;7.75;;;;;;;;;;6247427;23;20004;-90
2021/12/19 18:09:42;;;;;;;9.15;5.50;;;;;;;;;;6246760;23;20000;-90
2021/12/19 18:12:08;;;;;;;27.40;8.27;;;;;;;;;;6244518;23;20062;-90
2021/12/19 18:14:37;;;;;;;27.08;8.70;;;;;;;;;;6243957;23;20092;-89
2021/12/19 18:17:03;;;;;;;31.27;8.52;;;;;;;;;;6243664;23;20024;-92
2021/12/19 18:19:29;;;;;;;62.22;17.90;;;;;;;;;;6246005;23;20077;-91
2021/12/19 18:21:55;;;;;;;44.20;13.02;;;;;;;;;;6220581;23;20510;-91
2021/12/19 18:24:22;;;;;;;23.95;11.00;;;;;;;;;;6253384;23;20072;-89
2021/12/19 18:26:48;;;;;;;13.38;6.90;;;;;;;;;;6244667;23;20004;-89
2021/12/19 18:29:14;;;;;;;16.27;6.45;;;;;;;;;;6243877;23;20004;-92
2021/12/19 18:31:40;;;;;;;14.10;4.72;;;;;;;;;;6243175;23;20381;-91
2021/12/19 18:34:14;;;;;;;18.67;5.28;;;;;;;;;;6243784;23;20012;-89
2021/12/19 18:36:44;;;;;;;12.00;5.00;;;;;;;;;;6243598;23;20007;-91
2021/12/19 18:39:12;;;;;;;13.95;5.15;;;;;;;;;;6243878;23;20038;-89
2021/12/19 18:44:46;;;;;;;19.92;7.45;;;;;;;;;;6091811;23;20010;-90
2021/12/19 18:49:56;;;;;;;18.92;8.25;;;;;;;;;;6091826;23;20017;-89
2021/12/19 18:52:47;;;;;;;11.45;4.38;;;;;;;;;;6067771;23;20533;-92
2021/12/19 18:55:22;;;;;;;12.05;5.18;;;;;;;;;;6092171;23;20007;-91
2021/12/19 18:57:52;;;;;;;8.82;3.92;;;;;;;;;;6091598;23;20025;-90
2021/12/19 19:00:28;;;;;;;15.13;4.03;;;;;;;;;;6067581;23;20010;-89
2021/12/19 19:10:09;;;;;;;;;;;;;;;;;;;;;
2021/12/19 19:15:49;;;;;;;19.55;7.55;;;;;;;;;;6302958;22;20030;-87
2021/12/19 19:18:24;;;;;;;18.73;6.22;;;;;;;;;;6276838;22;20015;-93
2021/12/19 19:27:08;;;;;;;;;;;;;;;;;;;;;
2021/12/19 19:30:01;;;;;;;14.68;4.68;;;;;;;;;;6105030;23;20050;-95
2021/12/19 19:32:27;;;;;;;12.45;4.38;;;;;;;;;;6115959;23;20105;-91
2021/12/19 19:35:15;;;;;;;9.25;3.47;;;;;;;;;;6123422;23;20029;-95
2021/12/19 19:37:54;;;;;;;19.45;5.13;;;;;;;;;;6121221;23;20072;-95
2021/12/19 19:49:14;;;;;;;15.07;4.32;;;;;;;;;;6123174;23;20097;-93
2021/12/19 19:51:49;;;;;;;8.13;3.47;;;;;;;;;;6122446;23;20005;-94
2021/12/19 19:54:53;;;;;;;15.27;5.80;;;;;;;;;;6123853;23;20010;-95
2021/12/19 20:00:05;;;;;;;11.88;4.88;;;;;;;;;;6247212;22;20015;-94
2021/12/19 20:02:36;;;;;;;17.75;5.50;;;;;;;;;;6307354;22;20026;-95
2021/12/19 20:05:24;;;;;;;15.25;6.80;;;;;;;;;;6257338;22;20007;-93
2021/12/19 20:07:50;;;;;;;;;;;4.30;87.20;;;;;;6281208;22;20014;-89
2021/12/19 20:10:16;;;;;;;15.18;5.78;;;;;;;;;;6280387;22;19899;-91
2021/12/19 20:12:42;;;;;;;18.73;5.20;;;;;;;;;;6306539;22;20004;-90
2021/12/19 20:15:11;;;;;;;15.02;4.82;;;;;;;;;;6306539;22;20124;-90
2021/12/19 20:17:37;;;;;;;15.88;4.13;;;;;;;;;;6307077;22;20338;-90
2021/12/19 20:20:04;;;;;;;12.02;4.07;;;;;;;;;;6279016;22;20046;-90
2021/12/19 20:22:30;;;;;;;9.27;4.43;;;;;;;;;;6278742;22;20033;-90
2021/12/19 20:24:56;;;;;;;5.75;3.85;;;;;;;;;;6279747;22;20457;-90
2021/12/19 20:27:22;;;;;;;15.52;5.60;;;;;;;;;;6306997;22;20022;-90
2021/12/19 20:29:48;;;;;;;4.63;2.03;;;;;;;;;;6279536;22;20010;-90
2021/12/19 20:32:15;;;;;;;8.55;3.67;;;;;;;;;;6307300;22;20019;-90
2021/12/19 20:34:41;;;;;;;10.07;2.75;;;;;;;;;;6306052;22;20030;-90
2021/12/19 20:37:07;;;;;;;20.67;5.05;;;;;;;;;;6307398;22;20026;-90
2021/12/19 20:39:34;;;;;;;10.77;4.88;;;;;;;;;;6306171;22;20012;-89
2021/12/19 20:42:00;;;;;;;8.30;4.47;;;;;;;;;;6306979;22;20082;-90
2021/12/19 20:44:26;;;;;;;9.32;3.63;;;;;;;;;;6280126;22;20736;-89
2021/12/19 20:46:52;;;;;;;11.68;5.75;;;;;;;;;;6307476;22;20007;-91
2021/12/19 20:49:19;;;;;;;14.35;6.22;;;;;;;;;;6306850;22;20022;-89
2021/12/19 20:51:46;;;;;;;8.85;3.97;;;;;;;;;;6307325;22;20009;-89
2021/12/19 20:54:15;;;;;;;12.05;3.33;;;;;;;;;;6280239;22;20031;-90
2021/12/19 20:56:42;;;;;;;13.07;3.85;;;;;;;;;;6279878;22;20007;-90
2021/12/19 20:59:08;;;;;;;8.18;3.22;;;;;;;;;;6307204;22;20193;-90
2021/12/19 21:01:34;;;;;;;9.65;3.28;;;;;;;;;;6307132;22;20430;-89
2021/12/19 21:04:00;;;;;;;18.13;4.60;;;;;;;;;;6305806;22;20003;-90
2021/12/19 21:06:26;;;;;;;16.92;4.68;;;;;;;;;;6274002;22;19995;-91
2021/12/19 21:08:52;;;;;;;6.78;4.13;;;;;;;;;;6279674;22;20011;-89
2021/12/19 21:11:19;;;;;;;10.50;4.93;;;;;;;;;;6280012;22;20346;-90
2021/12/19 21:14:03;;;;;;;11.10;4.20;;;4.10;87.70;;;;;;6307663;22;20011;-91
2021/12/19 21:19:24;;;;;;;10.13;3.45;;;;;;;;;;6306645;22;20075;-89
2021/12/19 21:22:04;;;;;;;7.85;3.72;;;4.10;86.70;;;;;;6307482;22;20007;-89
2021/12/19 21:24:33;;;;;;;8.90;4.35;;;;;;;;;;6279869;22;20015;-90
2021/12/19 21:27:00;;;;;;;6.90;3.75;;;;;;;;;;6279785;22;20031;-89
2021/12/19 21:29:26;;;;;;;18.85;5.35;;;;;;;;;;6279873;22;20065;-89
2021/12/19 21:31:52;;;;;;;9.65;4.32;;;;;;;;;;6279729;22;19999;-89
2021/12/19 21:34:19;;;;;;;19.05;6.30;;;;;;;;;;6306583;22;20367;-91
2021/12/19 21:39:29;;;;;;;13.70;4.63;;;;;;;;;;6306855;22;20101;-89
2021/12/19 21:41:56;;;;;;;15.27;5.10;;;;;;;;;;6307105;22;20334;-90
2021/12/19 21:44:22;;;;;;;15.38;4.40;;;;;;;;;;6307041;22;20074;-91
2021/12/19 21:46:48;;;;;;;13.07;4.40;;;;;;;;;;6306673;22;20501;-90
2021/12/19 21:49:14;;;;;;;12.80;5.40;;;;;;;;;;6279948;22;20358;-89
2021/12/19 21:51:40;;;;;;;17.98;5.65;;;;;;;;;;6279420;22;20003;-93
2021/12/19 21:54:06;;;;;;;15.82;4.60;;;;;;;;;;6306040;22;19999;-91
2021/12/19 21:56:32;;;;;;;22.92;4.97;;;;;;;;;;6306562;22;20083;-93
2021/12/19 21:58:59;;;;;;;12.35;5.20;;;4.00;87.90;;;;;;6306072;22;20460;-93
2021/12/19 22:01:25;;;;;;;15.80;4.38;;;;;;;;;;6306246;22;20006;-90
2021/12/19 22:03:52;;;;;;;23.20;3.97;;;3.90;87.00;;;;;;6306791;22;20068;-89
2021/12/19 22:06:19;;;;;;;21.23;3.93;;;3.90;86.90;;;;;;6306527;22;20008;-91
2021/12/19 22:08:47;;;;;;;15.63;4.50;;;;;;;;;;6279349;22;20303;-90
2021/12/19 22:11:19;;;;;;;15.02;4.75;;;;;;;;;;6306702;22;20007;-90
2021/12/19 22:16:37;;;;;;;14.50;4.70;;;3.90;87.20;;;;;;6306436;22;20345;-91